createdAt,value
2018-11-23T00:00:07.269Z,0.00
2018-11-23T00:01:07.254Z,0.00
2018-11-23T00:02:07.243Z,0.00
2018-11-23T00:03:07.234Z,0.00
2018-11-23T00:04:07.223Z,0.00
2018-11-23T00:05:07.212Z,0.00
2018-11-23T00:06:07.198Z,0.00
2018-11-23T00:07:07.177Z,0.00
2018-11-23T00:08:07.173Z,0.00
2018-11-23T00:09:07.167Z,0.00
2018-11-23T00:10:07.152Z,0.00
2018-11-23T00:11:07.142Z,0.00
2018-11-23T00:12:07.126Z,0.00
2018-11-23T00:13:07.116Z,0.00
2018-11-23T00:14:07.106Z,0.00
2018-11-23T00:15:07.094Z,0.00
2018-11-23T00:16:07.084Z,0.00
2018-11-23T00:17:07.070Z,0.00
2018-11-23T00:18:07.059Z,0.00
2018-11-23T00:19:07.047Z,0.00
2018-11-23T00:20:07.046Z,0.00
2018-11-23T00:21:07.023Z,0.00
2018-11-23T00:22:07.013Z,0.00
2018-11-23T00:23:07.001Z,0.00
2018-11-23T00:24:06.990Z,0.00
2018-11-23T00:25:06.979Z,0.00
2018-11-23T00:26:06.968Z,0.00
2018-11-23T00:27:06.957Z,0.00
2018-11-23T00:28:06.951Z,0.00
2018-11-23T00:29:06.936Z,0.00
2018-11-23T00:30:06.921Z,0.00
2018-11-23T00:31:06.911Z,0.00
2018-11-23T00:32:06.901Z,0.00
2018-11-23T00:33:06.896Z,0.00
2018-11-23T00:34:06.875Z,0.00
2018-11-23T00:35:06.864Z,0.00
2018-11-23T00:36:06.845Z,0.00
2018-11-23T00:37:06.842Z,0.00
2018-11-23T00:38:06.835Z,0.00
2018-11-23T00:39:06.821Z,0.00
2018-11-23T00:40:06.807Z,0.00
2018-11-23T00:41:06.795Z,0.00
2018-11-23T00:42:06.784Z,0.00
2018-11-23T00:43:06.777Z,0.00
2018-11-23T00:44:06.761Z,0.00
2018-11-23T00:45:06.747Z,0.00
2018-11-23T00:46:06.739Z,0.00
2018-11-23T00:47:06.730Z,0.00
2018-11-23T00:48:06.713Z,0.00
2018-11-23T00:49:06.706Z,0.00
2018-11-23T00:50:06.696Z,0.00
2018-11-23T00:51:06.684Z,0.00
2018-11-23T00:52:06.672Z,0.00
2018-11-23T00:53:06.661Z,0.00
2018-11-23T00:54:06.648Z,0.00
2018-11-23T00:55:06.640Z,0.00
2018-11-23T00:56:06.633Z,0.00
2018-11-23T00:57:06.613Z,0.00
2018-11-23T00:58:06.602Z,0.00
2018-11-23T00:59:06.595Z,0.00
2018-11-23T01:00:06.585Z,0.00
2018-11-23T01:01:06.574Z,0.00
2018-11-23T01:02:06.562Z,0.00
2018-11-23T01:03:06.547Z,0.00
2018-11-23T01:04:06.534Z,0.00
2018-11-23T01:05:06.524Z,0.00
2018-11-23T01:06:06.501Z,0.00
2018-11-23T01:07:06.503Z,0.00
2018-11-23T01:08:06.488Z,0.00
2018-11-23T01:09:06.481Z,0.00
2018-11-23T01:10:06.466Z,0.00
2018-11-23T01:11:06.459Z,0.00
2018-11-23T01:12:06.448Z,0.00
2018-11-23T01:13:06.431Z,0.00
2018-11-23T01:14:06.424Z,0.00
2018-11-23T01:15:06.411Z,0.00
2018-11-23T01:16:06.398Z,0.00
2018-11-23T01:17:06.393Z,0.00
2018-11-23T01:18:06.375Z,0.00
2018-11-23T01:19:06.365Z,0.00
2018-11-23T01:20:06.358Z,0.00
2018-11-23T01:21:06.392Z,0.00
2018-11-23T01:22:06.328Z,0.00
2018-11-23T01:23:06.326Z,0.00
2018-11-23T01:24:06.309Z,0.00
2018-11-23T01:25:06.298Z,0.00
2018-11-23T01:26:06.288Z,0.00
2018-11-23T01:27:06.276Z,0.00
2018-11-23T01:28:06.265Z,0.00
2018-11-23T01:29:06.254Z,0.00
2018-11-23T01:30:06.243Z,0.00
2018-11-23T01:31:06.232Z,0.00
2018-11-23T01:32:06.218Z,0.00
2018-11-23T01:33:06.215Z,0.00
2018-11-23T01:34:06.199Z,0.00
2018-11-23T01:35:06.193Z,0.00
2018-11-23T01:36:06.173Z,0.00
2018-11-23T01:37:06.162Z,0.00
2018-11-23T01:38:06.150Z,0.00
2018-11-23T01:39:06.144Z,0.00
2018-11-23T01:40:06.128Z,0.00
2018-11-23T01:41:06.118Z,0.00
2018-11-23T01:42:06.119Z,0.00
2018-11-23T01:43:06.102Z,0.00
2018-11-23T01:44:06.083Z,0.00
2018-11-23T01:45:06.071Z,0.00
2018-11-23T01:46:06.060Z,0.00
2018-11-23T01:47:06.048Z,0.00
2018-11-23T01:48:06.036Z,0.00
2018-11-23T01:49:06.026Z,0.00
2018-11-23T01:50:06.014Z,0.00
2018-11-23T01:51:06.002Z,0.00
2018-11-23T01:52:05.981Z,0.00
2018-11-23T01:53:05.982Z,0.00
2018-11-23T01:54:05.971Z,0.00
2018-11-23T01:55:05.958Z,0.00
2018-11-23T01:56:05.953Z,0.00
2018-11-23T01:57:05.935Z,0.00
2018-11-23T01:58:05.923Z,0.00
2018-11-23T01:59:05.912Z,0.00
2018-11-23T02:00:05.900Z,0.00
2018-11-23T02:01:05.897Z,0.00
2018-11-23T02:02:05.880Z,0.00
2018-11-23T02:03:05.873Z,0.00
2018-11-23T02:04:05.862Z,0.00
2018-11-23T02:05:05.842Z,0.00
2018-11-23T02:06:05.837Z,0.00
2018-11-23T02:07:05.826Z,0.00
2018-11-23T02:08:05.809Z,0.00
2018-11-23T02:09:05.797Z,0.00
2018-11-23T02:10:05.787Z,0.00
2018-11-23T02:11:05.774Z,0.00
2018-11-23T02:12:05.765Z,0.00
2018-11-23T02:13:05.752Z,0.00
2018-11-23T02:14:05.742Z,0.00
2018-11-23T02:15:05.720Z,0.00
2018-11-23T02:16:05.719Z,0.00
2018-11-23T02:17:05.710Z,0.00
2018-11-23T02:18:05.697Z,0.00
2018-11-23T02:19:05.693Z,0.00
2018-11-23T02:20:05.676Z,0.00
2018-11-23T02:21:05.665Z,0.00
2018-11-23T02:22:05.651Z,0.00
2018-11-23T02:23:05.645Z,0.00
2018-11-23T02:24:05.632Z,0.00
2018-11-23T02:25:05.621Z,0.00
2018-11-23T02:26:05.606Z,0.00
2018-11-23T02:27:05.597Z,0.00
2018-11-23T02:28:05.586Z,0.00
2018-11-23T02:29:05.578Z,0.00
2018-11-23T02:30:05.562Z,0.00
2018-11-23T02:31:05.556Z,0.00
2018-11-23T02:32:05.541Z,0.00
2018-11-23T02:33:05.531Z,0.00
2018-11-23T02:34:05.518Z,0.00
2018-11-23T02:35:05.513Z,0.00
2018-11-23T02:36:05.510Z,0.00
2018-11-23T02:37:05.490Z,0.00
2018-11-23T02:38:05.471Z,0.00
2018-11-23T02:39:05.465Z,0.00
2018-11-23T02:40:05.447Z,0.00
2018-11-23T02:41:05.444Z,0.00
2018-11-23T02:42:05.435Z,0.00
2018-11-23T02:43:05.428Z,0.00
2018-11-23T02:44:05.409Z,0.00
2018-11-23T02:45:05.401Z,0.00
2018-11-23T02:46:05.389Z,0.00
2018-11-23T02:47:05.379Z,0.00
2018-11-23T02:48:05.372Z,0.00
2018-11-23T02:49:05.351Z,0.00
2018-11-23T02:50:05.345Z,0.00
2018-11-23T02:51:05.346Z,0.00
2018-11-23T02:52:05.324Z,0.00
2018-11-23T02:53:05.312Z,0.00
2018-11-23T02:54:05.303Z,0.00
2018-11-23T02:55:05.291Z,0.00
2018-11-23T02:56:05.279Z,0.00
2018-11-23T02:57:05.273Z,0.00
2018-11-23T02:58:05.259Z,0.00
2018-11-23T02:59:05.251Z,0.00
2018-11-23T03:00:05.237Z,0.00
2018-11-23T03:01:05.221Z,0.00
2018-11-23T03:02:05.216Z,0.00
2018-11-23T03:03:05.205Z,0.00
2018-11-23T03:04:05.191Z,0.00
2018-11-23T03:05:05.183Z,0.00
2018-11-23T03:06:05.196Z,0.00
2018-11-23T03:07:05.160Z,0.00
2018-11-23T03:08:05.206Z,0.00
2018-11-23T03:09:05.140Z,0.00
2018-11-23T03:10:05.152Z,0.00
2018-11-23T03:11:05.117Z,0.00
2018-11-23T03:12:05.106Z,0.00
2018-11-23T03:13:05.094Z,0.00
2018-11-23T03:14:05.086Z,0.00
2018-11-23T03:15:05.072Z,0.00
2018-11-23T03:16:05.061Z,0.00
2018-11-23T03:17:05.051Z,0.00
2018-11-23T03:18:05.042Z,0.00
2018-11-23T03:19:05.030Z,0.00
2018-11-23T03:20:05.018Z,0.00
2018-11-23T03:21:05.006Z,0.00
2018-11-23T03:22:04.994Z,0.00
2018-11-23T03:23:04.988Z,0.00
2018-11-23T03:24:04.961Z,0.00
2018-11-23T03:25:04.961Z,0.00
2018-11-23T03:26:04.953Z,0.00
2018-11-23T03:27:04.940Z,0.00
2018-11-23T03:28:04.930Z,0.00
2018-11-23T03:29:04.919Z,0.00
2018-11-23T03:30:04.913Z,0.00
2018-11-23T03:31:12.047Z,0.00
2018-11-23T03:32:04.886Z,0.00
2018-11-23T03:33:04.878Z,0.00
2018-11-23T03:34:04.862Z,0.00
2018-11-23T03:35:04.854Z,0.00
2018-11-23T03:36:04.868Z,0.00
2018-11-23T03:37:04.836Z,0.00
2018-11-23T03:38:04.822Z,0.00
2018-11-23T03:39:04.811Z,0.00
2018-11-23T03:40:04.804Z,0.00
2018-11-23T03:41:04.786Z,0.00
2018-11-23T03:42:04.781Z,0.00
2018-11-23T03:43:04.767Z,0.00
2018-11-23T03:44:04.757Z,0.00
2018-11-23T03:45:04.744Z,0.00
2018-11-23T03:46:04.736Z,0.00
2018-11-23T03:47:04.713Z,0.00
2018-11-23T03:48:04.712Z,0.00
2018-11-23T03:49:04.701Z,0.00
2018-11-23T03:50:04.686Z,0.00
2018-11-23T03:51:04.678Z,0.00
2018-11-23T03:52:04.664Z,0.00
2018-11-23T03:53:04.661Z,0.00
2018-11-23T03:54:04.647Z,0.00
2018-11-23T03:55:04.638Z,0.00
2018-11-23T03:56:04.626Z,0.00
2018-11-23T03:57:04.610Z,0.00
2018-11-23T03:58:04.603Z,0.00
2018-11-23T03:59:04.593Z,0.00
2018-11-23T04:00:04.580Z,0.00
2018-11-23T04:01:04.571Z,0.00
2018-11-23T04:02:04.561Z,0.00
2018-11-23T04:03:04.552Z,0.00
2018-11-23T04:04:04.538Z,0.00
2018-11-23T04:05:04.524Z,0.00
2018-11-23T04:06:04.519Z,0.00
2018-11-23T04:07:04.511Z,0.00
2018-11-23T04:08:04.497Z,0.00
2018-11-23T04:09:04.485Z,0.00
2018-11-23T04:10:04.475Z,0.00
2018-11-23T04:11:04.464Z,0.00
2018-11-23T04:12:04.453Z,0.00
2018-11-23T04:13:04.442Z,0.00
2018-11-23T04:14:04.432Z,0.00
2018-11-23T04:15:04.422Z,0.00
2018-11-23T04:16:04.412Z,0.00
2018-11-23T04:17:04.401Z,0.00
2018-11-23T04:18:04.391Z,0.00
2018-11-23T04:19:04.380Z,0.00
2018-11-23T04:20:04.358Z,0.00
2018-11-23T04:21:04.359Z,0.00
2018-11-23T04:22:04.349Z,0.00
2018-11-23T04:23:04.342Z,0.00
2018-11-23T04:24:04.325Z,0.00
2018-11-23T04:25:04.315Z,0.00
2018-11-23T04:26:04.305Z,0.00
2018-11-23T04:27:04.295Z,0.00
2018-11-23T04:28:04.284Z,0.00
2018-11-23T04:29:04.277Z,0.00
2018-11-23T04:30:04.265Z,0.00
2018-11-23T04:31:04.254Z,0.00
2018-11-23T04:32:04.245Z,0.00
2018-11-23T04:33:04.239Z,0.00
2018-11-23T04:34:04.224Z,0.00
2018-11-23T04:35:04.216Z,0.00
2018-11-23T04:36:04.201Z,0.00
2018-11-23T04:37:04.192Z,0.00
2018-11-23T04:38:04.182Z,0.00
2018-11-23T04:39:04.172Z,0.00
2018-11-23T04:40:04.161Z,0.00
2018-11-23T04:41:04.151Z,0.00
2018-11-23T04:42:04.145Z,0.00
2018-11-23T04:43:04.131Z,0.00
2018-11-23T04:44:04.123Z,0.00
2018-11-23T04:45:04.111Z,0.00
2018-11-23T04:46:04.098Z,0.00
2018-11-23T04:47:04.093Z,0.00
2018-11-23T04:48:04.079Z,0.00
2018-11-23T04:49:04.069Z,0.00
2018-11-23T04:50:04.060Z,0.00
2018-11-23T04:51:04.045Z,0.00
2018-11-23T04:52:04.042Z,0.00
2018-11-23T04:53:04.019Z,0.00
2018-11-23T04:54:04.021Z,0.00
2018-11-23T04:55:04.012Z,0.00
2018-11-23T04:56:03.997Z,0.00
2018-11-23T04:57:03.986Z,0.00
2018-11-23T04:58:03.976Z,0.00
2018-11-23T04:59:03.965Z,0.00
2018-11-23T05:00:03.959Z,0.00
2018-11-23T05:01:03.945Z,0.00
2018-11-23T05:02:03.936Z,0.00
2018-11-23T05:03:03.929Z,0.00
2018-11-23T05:04:03.913Z,0.00
2018-11-23T05:05:03.903Z,0.00
2018-11-23T05:06:03.911Z,0.00
2018-11-23T05:07:03.882Z,0.00
2018-11-23T05:08:03.868Z,0.00
2018-11-23T05:09:03.862Z,0.00
2018-11-23T05:10:03.852Z,0.00
2018-11-23T05:11:03.843Z,0.00
2018-11-23T05:12:03.829Z,0.00
2018-11-23T05:13:03.822Z,0.00
2018-11-23T05:14:03.809Z,0.00
2018-11-23T05:15:03.799Z,0.00
2018-11-23T05:16:03.793Z,0.00
2018-11-23T05:17:03.780Z,0.00
2018-11-23T05:18:03.766Z,0.00
2018-11-23T05:19:03.757Z,0.00
2018-11-23T05:20:03.745Z,0.00
2018-11-23T05:21:03.734Z,0.00
2018-11-23T05:22:03.725Z,0.00
2018-11-23T05:23:03.711Z,0.00
2018-11-23T05:24:03.705Z,0.00
2018-11-23T05:25:03.692Z,0.00
2018-11-23T05:26:03.684Z,0.00
2018-11-23T05:27:03.673Z,0.00
2018-11-23T05:28:03.668Z,0.00
2018-11-23T05:29:03.707Z,0.00
2018-11-23T05:30:03.642Z,0.00
2018-11-23T05:31:03.629Z,0.00
2018-11-23T05:32:03.625Z,0.00
2018-11-23T05:33:03.614Z,0.00
2018-11-23T05:34:03.599Z,0.00
2018-11-23T05:35:03.593Z,0.00
2018-11-23T05:36:03.578Z,0.00
2018-11-23T05:37:03.567Z,0.00
2018-11-23T05:38:03.557Z,0.00
2018-11-23T05:39:03.549Z,0.00
2018-11-23T05:40:03.533Z,0.00
2018-11-23T05:41:03.524Z,0.00
2018-11-23T05:42:03.550Z,0.00
2018-11-23T05:43:04.571Z,0.00
2018-11-23T05:44:03.493Z,0.00
2018-11-23T05:45:03.481Z,0.00
2018-11-23T05:46:03.471Z,0.00
2018-11-23T05:47:03.466Z,0.00
2018-11-23T05:48:03.453Z,0.00
2018-11-23T05:49:03.439Z,0.00
2018-11-23T05:50:03.422Z,0.00
2018-11-23T05:51:03.422Z,0.00
2018-11-23T05:52:03.409Z,0.00
2018-11-23T05:53:03.403Z,0.00
2018-11-23T05:54:03.387Z,0.00
2018-11-23T05:55:03.379Z,0.00
2018-11-23T05:56:03.366Z,0.00
2018-11-23T05:57:03.356Z,0.00
2018-11-23T05:58:03.349Z,0.00
2018-11-23T05:59:03.335Z,0.00
2018-11-23T06:00:03.325Z,0.00
2018-11-23T06:01:03.315Z,0.00
2018-11-23T06:02:03.303Z,0.00
2018-11-23T06:03:03.320Z,0.00
2018-11-23T06:04:03.281Z,0.00
2018-11-23T06:05:03.270Z,4.00
2018-11-23T06:06:03.260Z,4.00
2018-11-23T06:07:03.250Z,0.00
2018-11-23T06:08:03.237Z,4.00
2018-11-23T06:09:03.228Z,4.00
2018-11-23T06:10:03.219Z,4.00
2018-11-23T06:11:03.209Z,8.00
2018-11-23T06:12:03.197Z,8.00
2018-11-23T06:13:03.185Z,8.00
2018-11-23T06:14:03.177Z,12.00
2018-11-23T06:15:03.165Z,12.00
2018-11-23T06:16:03.153Z,12.00
2018-11-23T06:17:03.143Z,16.00
2018-11-23T06:18:03.133Z,20.00
2018-11-23T06:19:03.123Z,20.00
2018-11-23T06:20:03.111Z,24.00
2018-11-23T06:21:03.100Z,32.00
2018-11-23T06:22:03.089Z,32.00
2018-11-23T06:23:03.078Z,36.00
2018-11-23T06:24:03.072Z,44.00
2018-11-23T06:25:03.057Z,52.00
2018-11-23T06:26:03.068Z,56.00
2018-11-23T06:27:03.040Z,64.00
2018-11-23T06:28:03.023Z,76.00
2018-11-23T06:29:03.016Z,84.00
2018-11-23T06:30:03.009Z,100.00
2018-11-23T06:31:02.992Z,112.00
2018-11-23T06:32:02.981Z,124.00
2018-11-23T06:33:02.993Z,140.00
2018-11-23T06:34:02.959Z,156.00
2018-11-23T06:35:02.951Z,168.00
2018-11-23T06:36:02.935Z,180.00
2018-11-23T06:37:02.928Z,204.00
2018-11-23T06:38:02.915Z,224.00
2018-11-23T06:39:02.904Z,248.00
2018-11-23T06:40:02.892Z,272.00
2018-11-23T06:41:02.882Z,292.00
2018-11-23T06:42:02.871Z,316.00
2018-11-23T06:43:02.874Z,344.00
2018-11-23T06:44:02.849Z,368.00
2018-11-23T06:45:02.842Z,396.00
2018-11-23T06:46:02.833Z,412.00
2018-11-23T06:47:02.810Z,440.00
2018-11-23T06:48:02.883Z,468.00
2018-11-23T06:49:02.795Z,500.00
2018-11-23T06:50:02.785Z,524.00
2018-11-23T06:51:02.767Z,556.00
2018-11-23T06:52:02.759Z,588.00
2018-11-23T06:53:02.754Z,620.00
2018-11-23T06:54:02.751Z,652.00
2018-11-23T06:55:02.728Z,684.00
2018-11-23T06:56:02.718Z,720.00
2018-11-23T06:57:02.707Z,748.00
2018-11-23T06:58:02.696Z,788.00
2018-11-23T06:59:02.687Z,824.00
2018-11-23T07:00:02.674Z,860.00
2018-11-23T07:01:02.664Z,888.00
2018-11-23T07:02:02.653Z,912.00
2018-11-23T07:03:02.647Z,948.00
2018-11-23T07:04:02.649Z,1016.00
2018-11-23T07:05:02.623Z,1052.00
2018-11-23T07:06:02.611Z,1068.00
2018-11-23T07:07:02.598Z,1052.00
2018-11-23T07:08:02.590Z,1072.00
2018-11-23T07:09:02.576Z,1172.00
2018-11-23T07:10:02.564Z,1284.00
2018-11-23T07:11:02.558Z,1364.00
2018-11-23T07:12:02.549Z,1292.00
2018-11-23T07:13:02.532Z,1292.00
2018-11-23T07:14:04.099Z,1420.00
2018-11-23T07:15:02.513Z,1400.00
2018-11-23T07:16:02.500Z,1608.00
2018-11-23T07:17:02.491Z,1692.00
2018-11-23T07:18:02.479Z,1576.00
2018-11-23T07:19:02.471Z,1652.00
2018-11-23T07:20:02.463Z,1820.00
2018-11-23T07:21:02.446Z,2100.00
2018-11-23T07:22:02.436Z,2104.00
2018-11-23T07:23:02.426Z,2228.00
2018-11-23T07:24:02.416Z,2548.00
2018-11-23T07:25:02.404Z,2532.00
2018-11-23T07:26:02.402Z,2432.00
2018-11-23T07:27:02.399Z,2076.00
2018-11-23T07:28:02.372Z,2148.00
2018-11-23T07:29:02.366Z,2648.00
2018-11-23T07:30:02.353Z,2712.00
2018-11-23T07:31:02.644Z,2696.00
2018-11-23T07:32:02.326Z,2772.00
2018-11-23T07:33:02.320Z,2776.00
2018-11-23T07:34:02.308Z,2880.00
2018-11-23T07:35:02.300Z,3092.00
2018-11-23T07:36:02.286Z,3128.00
2018-11-23T07:37:02.268Z,3060.00
2018-11-23T07:38:02.268Z,3196.00
2018-11-23T07:39:02.273Z,3316.00
2018-11-23T07:40:02.244Z,2928.00
2018-11-23T07:41:02.246Z,2900.00
2018-11-23T07:42:02.221Z,3332.00
2018-11-23T07:43:02.209Z,3424.00
2018-11-23T07:44:02.199Z,3432.00
2018-11-23T07:45:02.187Z,3616.00
2018-11-23T07:46:02.179Z,3588.00
2018-11-23T07:47:02.189Z,3844.00
2018-11-23T07:48:02.159Z,4324.00
2018-11-23T07:49:02.150Z,4592.00
2018-11-23T07:50:02.140Z,4628.00
2018-11-23T07:51:02.129Z,4332.00
2018-11-23T07:52:02.109Z,4376.00
2018-11-23T07:53:02.101Z,5032.00
2018-11-23T07:54:02.094Z,5180.00
2018-11-23T07:55:02.085Z,4944.00
2018-11-23T07:56:02.068Z,4904.00
2018-11-23T07:57:02.060Z,4336.00
2018-11-23T07:58:02.052Z,4072.00
2018-11-23T07:59:02.042Z,3976.00
2018-11-23T08:00:02.055Z,4404.00
2018-11-23T08:01:02.044Z,5928.00
2018-11-23T08:02:02.006Z,6168.00
2018-11-23T08:03:02.001Z,5364.00
2018-11-23T08:04:01.985Z,5820.00
2018-11-23T08:05:01.974Z,5356.00
2018-11-23T08:06:01.963Z,4488.00
2018-11-23T08:07:01.952Z,4372.00
2018-11-23T08:08:01.943Z,5820.00
2018-11-23T08:09:01.942Z,6240.00
2018-11-23T08:10:01.918Z,5464.00
2018-11-23T08:11:01.911Z,6424.00
2018-11-23T08:12:01.900Z,6072.00
2018-11-23T08:13:01.899Z,6036.00
2018-11-23T08:14:01.873Z,5920.00
2018-11-23T08:15:01.867Z,5892.00
2018-11-23T08:16:01.862Z,6640.00
2018-11-23T08:17:01.850Z,7116.00
2018-11-23T08:18:01.838Z,7212.00
2018-11-23T08:19:01.832Z,6976.00
2018-11-23T08:20:01.824Z,7400.00
2018-11-23T08:21:01.808Z,7740.00
2018-11-23T08:22:01.796Z,8100.00
2018-11-23T08:23:01.810Z,8496.00
2018-11-23T08:24:01.776Z,9304.00
2018-11-23T08:25:01.765Z,9400.00
2018-11-23T08:26:01.760Z,8912.00
2018-11-23T08:27:01.747Z,8528.00
2018-11-23T08:28:01.737Z,8948.00
2018-11-23T08:29:01.726Z,7216.00
2018-11-23T08:30:01.718Z,6908.00
2018-11-23T08:31:01.716Z,8748.00
2018-11-23T08:32:01.698Z,9344.00
2018-11-23T08:33:01.716Z,7884.00
2018-11-23T08:34:01.682Z,10168.00
2018-11-23T08:35:01.670Z,9604.00
2018-11-23T08:36:01.659Z,8848.00
2018-11-23T08:37:01.645Z,8876.00
2018-11-23T08:38:01.643Z,8176.00
2018-11-23T08:39:04.744Z,7904.00
2018-11-23T08:40:01.624Z,7376.00
2018-11-23T08:41:01.613Z,6844.00
2018-11-23T08:42:01.606Z,7020.00
2018-11-23T08:43:01.603Z,8260.00
2018-11-23T08:44:01.589Z,6804.00
2018-11-23T08:45:01.577Z,7208.00
2018-11-23T08:46:01.575Z,7616.00
2018-11-23T08:47:01.562Z,7288.00
2018-11-23T08:48:01.551Z,7136.00
2018-11-23T08:49:01.539Z,7040.00
2018-11-23T08:50:01.533Z,7284.00
2018-11-23T08:51:01.523Z,8288.00
2018-11-23T08:52:01.515Z,8832.00
2018-11-23T08:53:01.514Z,9456.00
2018-11-23T08:54:01.496Z,9744.00
2018-11-23T08:55:01.491Z,9752.00
2018-11-23T08:56:01.505Z,9100.00
2018-11-23T08:57:01.472Z,8104.00
2018-11-23T08:58:01.474Z,9076.00
2018-11-23T08:59:01.457Z,10288.00
2018-11-23T09:00:01.447Z,10628.00
2018-11-23T09:01:01.438Z,9716.00
2018-11-23T09:02:01.432Z,8648.00
2018-11-23T09:03:01.418Z,8908.00
2018-11-23T09:04:01.420Z,8516.00
2018-11-23T09:05:01.414Z,8248.00
2018-11-23T09:06:01.412Z,8624.00
2018-11-23T09:07:01.400Z,8348.00
2018-11-23T09:08:01.391Z,7644.00
2018-11-23T09:09:01.386Z,8944.00
2018-11-23T09:10:01.375Z,9560.00
2018-11-23T09:11:01.377Z,9568.00
2018-11-23T09:12:01.372Z,9636.00
2018-11-23T09:13:01.362Z,9636.00
2018-11-23T09:14:01.358Z,9572.00
2018-11-23T09:15:01.352Z,9464.00
2018-11-23T09:16:01.345Z,9468.00
2018-11-23T09:17:01.352Z,9696.00
2018-11-23T09:18:01.337Z,9680.00
2018-11-23T09:19:01.367Z,9612.00
2018-11-23T09:20:01.327Z,9724.00
2018-11-23T09:21:01.320Z,9752.00
2018-11-23T09:22:01.318Z,9692.00
2018-11-23T09:23:01.325Z,9740.00
2018-11-23T09:24:01.310Z,9596.00
2018-11-23T09:25:01.310Z,9692.00
2018-11-23T09:26:01.303Z,9700.00
2018-11-23T09:27:01.303Z,9732.00
2018-11-23T09:28:01.295Z,9480.00
2018-11-23T09:29:01.288Z,9556.00
2018-11-23T09:30:01.295Z,9696.00
2018-11-23T09:31:01.285Z,9828.00
2018-11-23T09:32:01.270Z,9736.00
2018-11-23T09:33:01.298Z,9012.00
2018-11-23T09:34:01.284Z,7992.00
2018-11-23T09:35:01.274Z,6856.00
2018-11-23T09:36:01.269Z,6796.00
2018-11-23T09:37:01.268Z,7624.00
2018-11-23T09:38:01.274Z,8028.00
2018-11-23T09:39:01.264Z,8672.00
2018-11-23T09:40:01.284Z,9476.00
2018-11-23T09:41:01.256Z,9460.00
2018-11-23T09:42:01.257Z,9760.00
2018-11-23T09:43:01.250Z,10116.00
2018-11-23T09:44:01.245Z,9984.00
2018-11-23T09:45:01.243Z,10252.00
2018-11-23T09:46:01.239Z,10028.00
2018-11-23T09:47:01.234Z,9992.00
2018-11-23T09:48:01.238Z,8328.00
2018-11-23T09:49:01.228Z,10144.00
2018-11-23T09:50:01.225Z,9792.00
2018-11-23T09:51:01.228Z,9480.00
2018-11-23T09:52:01.229Z,9748.00
2018-11-23T09:53:01.222Z,9700.00
2018-11-23T09:54:01.221Z,9748.00
2018-11-23T09:55:01.217Z,9512.00
2018-11-23T09:56:01.215Z,9512.00
2018-11-23T09:57:01.215Z,9760.00
2018-11-23T09:58:01.212Z,9396.00
2018-11-23T09:59:01.208Z,9412.00
2018-11-23T10:00:01.207Z,9388.00
2018-11-23T10:01:01.205Z,9280.00
2018-11-23T10:02:01.203Z,9400.00
2018-11-23T10:03:01.204Z,9416.00
2018-11-23T10:04:01.205Z,8748.00
2018-11-23T10:05:01.198Z,9420.00
2018-11-23T10:06:01.684Z,9112.00
2018-11-23T10:07:01.195Z,9296.00
2018-11-23T10:08:01.201Z,9444.00
2018-11-23T10:09:01.192Z,9252.00
2018-11-23T10:10:01.190Z,9180.00
2018-11-23T10:11:01.188Z,8948.00
2018-11-23T10:12:01.184Z,8384.00
2018-11-23T10:13:01.185Z,8128.00
2018-11-23T10:14:01.180Z,8420.00
2018-11-23T10:15:01.189Z,8016.00
2018-11-23T10:16:01.181Z,7268.00
2018-11-23T10:17:01.189Z,6364.00
2018-11-23T10:18:02.206Z,8484.00
2018-11-23T10:19:01.174Z,7612.00
2018-11-23T10:20:01.212Z,6876.00
2018-11-23T10:21:01.192Z,6856.00
2018-11-23T10:22:01.169Z,7196.00
2018-11-23T10:23:01.166Z,6920.00
2018-11-23T10:24:01.161Z,7112.00
2018-11-23T10:25:01.159Z,7408.00
2018-11-23T10:26:01.165Z,7744.00
2018-11-23T10:27:01.171Z,7804.00
2018-11-23T10:28:01.154Z,7260.00
2018-11-23T10:29:01.148Z,7484.00
2018-11-23T10:30:01.335Z,7440.00
2018-11-23T10:31:01.140Z,7572.00
2018-11-23T10:32:01.134Z,8008.00
2018-11-23T10:33:01.144Z,8220.00
2018-11-23T10:34:01.129Z,8552.00
2018-11-23T10:35:01.113Z,8704.00
2018-11-23T10:36:01.178Z,8928.00
2018-11-23T10:37:01.114Z,8992.00
2018-11-23T10:38:01.110Z,9712.00
2018-11-23T10:39:01.109Z,10760.00
2018-11-23T10:40:01.106Z,11484.00
2018-11-23T10:41:01.101Z,11868.00
2018-11-23T10:42:01.095Z,12308.00
2018-11-23T10:43:01.091Z,12612.00
2018-11-23T10:44:01.086Z,12776.00
2018-11-23T10:45:01.094Z,12700.00
2018-11-23T10:46:01.074Z,12692.00
2018-11-23T10:47:01.076Z,12644.00
2018-11-23T10:48:01.065Z,12632.00
2018-11-23T10:49:01.060Z,12692.00
2018-11-23T10:50:01.054Z,12484.00
2018-11-23T10:51:01.047Z,12720.00
2018-11-23T10:52:01.041Z,12976.00
2018-11-23T10:53:01.044Z,13236.00
2018-11-23T10:54:01.036Z,13540.00
2018-11-23T10:55:01.028Z,13744.00
2018-11-23T10:56:01.027Z,13812.00
2018-11-23T10:57:01.107Z,13676.00
2018-11-23T10:58:01.016Z,13492.00
2018-11-23T10:59:01.012Z,13300.00
2018-11-23T11:00:01.006Z,13104.00
2018-11-23T11:01:01.008Z,12848.00
2018-11-23T11:02:01.000Z,12696.00
2018-11-23T11:03:00.993Z,12608.00
2018-11-23T11:04:00.993Z,12480.00
2018-11-23T11:05:00.982Z,12528.00
2018-11-23T11:06:00.979Z,12752.00
2018-11-23T11:07:00.971Z,12944.00
2018-11-23T11:08:00.968Z,13204.00
2018-11-23T11:09:00.969Z,13368.00
2018-11-23T11:10:00.956Z,13460.00
2018-11-23T11:11:00.952Z,13596.00
2018-11-23T11:12:00.959Z,13772.00
2018-11-23T11:13:00.946Z,14028.00
2018-11-23T11:14:00.936Z,14160.00
2018-11-23T11:15:00.934Z,14004.00
2018-11-23T11:16:00.927Z,13612.00
2018-11-23T11:17:00.921Z,13308.00
2018-11-23T11:18:00.922Z,13204.00
2018-11-23T11:19:00.914Z,13172.00
2018-11-23T11:20:00.901Z,13248.00
2018-11-23T11:21:00.899Z,13412.00
2018-11-23T11:22:00.896Z,13632.00
2018-11-23T11:23:00.889Z,13768.00
2018-11-23T11:24:00.883Z,13772.00
2018-11-23T11:25:00.876Z,13840.00
2018-11-23T11:26:00.867Z,13736.00
2018-11-23T11:27:00.867Z,13548.00
2018-11-23T11:28:00.861Z,13464.00
2018-11-23T11:29:00.861Z,13440.00
2018-11-23T11:30:00.852Z,13432.00
2018-11-23T11:31:00.845Z,13376.00
2018-11-23T11:32:00.843Z,13184.00
2018-11-23T11:33:00.835Z,12948.00
2018-11-23T11:34:00.834Z,12796.00
2018-11-23T11:35:00.822Z,12760.00
2018-11-23T11:36:00.826Z,12980.00
2018-11-23T11:37:00.811Z,13540.00
2018-11-23T11:38:00.807Z,14180.00
2018-11-23T11:39:00.804Z,14628.00
2018-11-23T11:40:00.804Z,14864.00
2018-11-23T11:41:00.788Z,14852.00
2018-11-23T11:42:00.783Z,14680.00
2018-11-23T11:43:00.777Z,14384.00
2018-11-23T11:44:00.771Z,14160.00
2018-11-23T11:45:00.766Z,13956.00
2018-11-23T11:46:00.772Z,13612.00
2018-11-23T11:47:00.753Z,13300.00
2018-11-23T11:48:00.745Z,12952.00
2018-11-23T11:49:00.743Z,12616.00
2018-11-23T11:50:00.736Z,12332.00
2018-11-23T11:51:00.735Z,12368.00
2018-11-23T11:52:00.740Z,12620.00
2018-11-23T11:53:00.715Z,12732.00
2018-11-23T11:54:00.713Z,12764.00
2018-11-23T11:55:00.707Z,12880.00
2018-11-23T11:56:00.697Z,12984.00
2018-11-23T11:57:00.695Z,13108.00
2018-11-23T11:58:00.687Z,13204.00
2018-11-23T11:59:00.689Z,13200.00
2018-11-23T12:00:00.676Z,13160.00
2018-11-23T12:01:00.675Z,13148.00
2018-11-23T12:02:00.664Z,13152.00
2018-11-23T12:03:00.660Z,13084.00
2018-11-23T12:04:00.653Z,13076.00
2018-11-23T12:05:00.644Z,13112.00
2018-11-23T12:06:00.649Z,13120.00
2018-11-23T12:07:00.640Z,13096.00
2018-11-23T12:08:00.622Z,12960.00
2018-11-23T12:09:00.625Z,12776.00
2018-11-23T12:10:00.617Z,12644.00
2018-11-23T12:11:00.618Z,12540.00
2018-11-23T12:12:00.607Z,12484.00
2018-11-23T12:13:00.595Z,12420.00
2018-11-23T12:14:00.593Z,12420.00
2018-11-23T12:15:00.590Z,12324.00
2018-11-23T12:16:00.585Z,12312.00
2018-11-23T12:17:00.575Z,12264.00
2018-11-23T12:18:00.571Z,12060.00
2018-11-23T12:19:00.563Z,11936.00
2018-11-23T12:20:00.555Z,11948.00
2018-11-23T12:21:00.558Z,11908.00
2018-11-23T12:22:00.546Z,11740.00
2018-11-23T12:23:00.528Z,11556.00
2018-11-23T12:24:00.535Z,11388.00
2018-11-23T12:25:00.526Z,11252.00
2018-11-23T12:26:00.522Z,11104.00
2018-11-23T12:27:00.514Z,10944.00
2018-11-23T12:28:00.508Z,10920.00
2018-11-23T12:29:00.502Z,10968.00
2018-11-23T12:30:00.501Z,11016.00
2018-11-23T12:31:00.492Z,11060.00
2018-11-23T12:32:00.485Z,11152.00
2018-11-23T12:33:00.502Z,11220.00
2018-11-23T12:34:00.475Z,11136.00
2018-11-23T12:35:00.463Z,10832.00
2018-11-23T12:36:00.458Z,10420.00
2018-11-23T12:37:00.451Z,10052.00